Time;durP1;ratioP1;P1;durP2;ratioP2;P2;SDS_P1;SDS_P2;PMS_P1;PMS_P2;Temp;Humidity;BMP_temperature;BMP_pressure;BME280_temperature;BME280_humidity;BME280_pressure;Samples;Min_cycle;Max_cycle;Signal;HPM_P1;HPM_P2
2022/08/26 00:00:37;;;;;;;11.70;4.93;;;;;;;24.84;50.14;97150.69;5052568;28;20447;-70
2022/08/26 00:03:03;;;;;;;5.40;4.93;;;;;;;24.62;50.37;97146.03;5052753;28;20236;-70
2022/08/26 00:05:28;;;;;;;6.37;4.80;;;;;;;24.67;50.63;97143.47;5052422;28;20256;-70
2022/08/26 00:07:54;;;;;;;5.67;5.07;;;;;;;24.73;50.33;97143.53;5051474;28;20187;-71
2022/08/26 00:10:20;;;;;;;6.90;5.60;;;;;;;24.76;50.66;97145.75;5052457;28;20183;-70
2022/08/26 00:12:46;;;;;;;4.80;4.37;;;;;;;24.69;50.52;97146.75;5052333;28;20256;-70
2022/08/26 00:15:14;;;;;;;5.60;4.97;;;;;;;24.68;50.44;97142.41;5052056;28;20528;-70
2022/08/26 00:17:40;;;;;;;7.70;5.60;;;;;;;24.67;50.31;97148.81;5051687;28;20294;-70
2022/08/26 00:20:08;;;;;;;6.17;5.53;;;;;;;24.66;50.72;97139.16;5050254;28;20505;-70
2022/08/26 00:22:33;;;;;;;5.77;5.00;;;;;;;24.63;50.40;97144.19;5059894;28;20175;-70
2022/08/26 00:24:59;;;;;;;5.73;5.23;;;;;;;24.66;50.58;97135.66;5060333;28;20426;-70
2022/08/26 00:27:24;;;;;;;5.50;4.90;;;;;;;24.63;50.40;97133.47;5059339;28;20265;-69
2022/08/26 00:29:50;;;;;;;5.40;4.90;;;;;;;24.59;50.88;97138.50;5049863;28;20221;-70
2022/08/26 00:32:15;;;;;;;9.50;5.07;;;;;;;24.54;50.79;97135.75;5051635;28;20183;-70
2022/08/26 00:34:41;;;;;;;6.53;5.90;;;;;;;24.52;50.53;97138.66;5052162;28;20269;-70
2022/08/26 00:37:06;;;;;;;7.00;5.00;;;;;;;24.42;50.90;97137.69;5050571;28;20206;-70
2022/08/26 00:39:32;;;;;;;5.97;5.30;;;;;;;24.39;51.14;97144.34;5051564;28;20186;-69
2022/08/26 00:41:57;;;;;;;5.17;4.77;;;;;;;24.37;51.14;97141.91;5051801;28;20324;-70
2022/08/26 00:44:23;;;;;;;5.47;4.97;;;;;;;24.37;51.14;97131.19;5051163;28;20213;-71
2022/08/26 00:46:54;;;;;;;5.40;4.87;;;;;;;24.37;51.06;97144.59;5056139;28;20187;-70
2022/08/26 00:49:41;;;;;;;5.30;4.80;;;;;;;24.33;51.26;97137.28;5050523;28;20184;-70
2022/08/26 00:52:09;;;;;;;6.17;5.20;;;;;;;24.22;51.56;97138.97;5050091;28;20429;-71
2022/08/26 00:54:39;;;;;;;5.90;5.30;;;;;;;24.30;51.35;97137.75;5050376;28;20424;-71
2022/08/26 00:57:07;;;;;;;5.27;4.87;;;;;;;24.20;51.50;97135.72;5050292;28;20864;-71
2022/08/26 00:59:33;;;;;;;5.87;4.77;;;;;;;24.18;51.72;97140.53;5042957;28;20433;-69
2022/08/26 01:02:00;;;;;;;5.87;5.30;;;;;;;24.11;52.11;97137.19;5050424;28;20414;-70
2022/08/26 01:04:25;;;;;;;7.03;4.73;;;;;;;24.03;51.93;97135.69;5051402;28;20175;-70
2022/08/26 01:06:52;;;;;;;6.53;4.87;;;;;;;24.06;52.07;97143.25;5049351;28;20583;-70
2022/08/26 01:09:19;;;;;;;6.53;4.80;;;;;;;24.05;51.88;97129.06;5052577;28;20182;-70
2022/08/26 01:11:45;;;;;;;5.80;5.30;;;;;;;24.00;52.30;97138.88;5056359;28;20421;-70
2022/08/26 01:14:12;;;;;;;5.50;5.00;;;;;;;23.97;52.30;97144.72;5050112;28;20839;-71
2022/08/26 01:16:38;;;;;;;5.93;5.27;;;;;;;23.84;52.66;97143.09;5049419;28;20538;-69
2022/08/26 01:19:26;;;;;;;5.43;4.93;;;;;;;23.86;52.59;97138.31;5050230;28;20480;-71
2022/08/26 01:22:01;;;;;;;7.27;5.37;;;;;;;23.90;52.31;97140.28;5057878;28;20183;-70
2022/08/26 01:24:28;;;;;;;5.47;4.97;;;;;;;23.90;52.34;97144.81;5049891;28;20487;-70
2022/08/26 01:27:00;;;;;;;9.07;4.87;;;;;;;23.86;52.59;97135.63;5058627;28;20936;-70
2022/08/26 01:29:27;;;;;;;6.00;4.83;;;;;;;23.76;52.66;97147.78;5050470;28;20943;-70
2022/08/26 01:31:54;;;;;;;6.10;5.40;;;;;;;23.77;52.60;97152.09;5050379;28;20778;-71
2022/08/26 01:34:44;;;;;;;9.33;5.27;;;;;;;23.74;52.78;97135.72;5050531;28;20429;-70
2022/08/26 01:37:15;;;;;;;7.20;5.50;;;;;;;23.72;52.86;97138.59;5048471;28;20461;-71
2022/08/26 01:39:41;;;;;;;6.90;5.87;;;;;;;23.75;52.67;97140.81;5049009;28;20426;-71
2022/08/26 01:42:09;;;;;;;10.97;5.30;;;;;;;23.63;52.85;97142.72;5050828;28;20417;-70
2022/08/26 01:44:40;;;;;;;5.80;5.20;;;;;;;23.62;53.13;97144.59;5052341;28;20456;-70
2022/08/26 01:47:06;;;;;;;5.77;5.10;;;;;;;23.56;52.99;97142.84;5051965;28;20445;-71
2022/08/26 01:49:33;;;;;;;6.23;5.70;;;;;;;23.60;53.09;97144.00;5049790;28;20463;-70
2022/08/26 01:51:59;;;;;;;8.93;5.63;;;;;;;23.57;53.15;97146.31;5049661;28;20422;-71
2022/08/26 01:54:25;;;;;;;6.20;5.37;;;;;;;23.53;53.31;97142.53;5050860;28;20426;-70
2022/08/26 01:56:51;;;;;;;5.80;5.30;;;;;;;23.49;53.46;97147.53;5048825;28;21105;-70
2022/08/26 01:59:18;;;;;;;5.30;4.80;;;;;;;23.54;53.44;97144.16;5052861;28;20183;-70
2022/08/26 02:01:44;;;;;;;7.57;5.50;;;;;;;23.53;53.25;97142.53;5054008;28;20984;-70
2022/08/26 02:04:17;;;;;;;9.57;5.97;;;;;;;23.45;53.35;97141.81;5054694;28;20500;-70
2022/08/26 02:06:43;;;;;;;5.60;5.13;;;;;;;23.44;53.47;97150.91;5052996;28;20429;-70
2022/08/26 02:09:09;;;;;;;8.77;5.03;;;;;;;23.49;53.41;97150.22;5053322;28;20790;-70
2022/08/26 02:11:35;;;;;;;5.17;4.73;;;;;;;23.47;53.47;97150.44;5052368;28;20434;-70
2022/08/26 02:14:09;;;;;;;9.30;5.27;;;;;;;23.46;53.49;97151.47;5054372;28;20976;-70
2022/08/26 02:16:39;;;;;;;7.27;5.60;;;;;;;23.45;53.51;97149.06;5045324;28;20203;-70
2022/08/26 02:19:06;;;;;;;6.00;5.00;;;;;;;23.44;53.33;97144.75;5053194;28;20421;-72
2022/08/26 02:21:31;;;;;;;5.70;5.10;;;;;;;23.42;53.52;97149.53;5061455;28;20478;-70
2022/08/26 02:24:07;;;;;;;5.47;4.97;;;;;;;23.37;53.54;97150.22;5054308;28;20425;-70
2022/08/26 02:26:33;;;;;;;8.17;5.07;;;;;;;23.36;53.48;97151.28;5044593;28;20217;-70
2022/08/26 02:29:04;;;;;;;5.57;5.00;;;;;;;23.32;53.69;97150.13;5051600;28;20453;-70
2022/08/26 02:31:30;;;;;;;8.20;5.70;;;;;;;23.24;53.72;97148.66;5046370;28;20183;-70
2022/08/26 02:34:11;;;;;;;6.43;4.90;;;;;;;23.20;53.99;97150.16;5054087;28;20839;-70
2022/08/26 02:36:37;;;;;;;7.60;5.70;;;;;;;23.28;53.82;97148.97;5046191;28;20682;-71
2022/08/26 02:39:03;;;;;;;5.77;5.17;;;;;;;23.30;53.86;97154.91;5061876;28;20429;-71
2022/08/26 02:41:28;;;;;;;6.07;5.53;;;;;;;23.27;53.97;97150.81;5054050;28;20187;-71
2022/08/26 02:43:54;;;;;;;6.57;5.83;;;;;;;23.22;53.72;97152.56;5054104;28;20270;-72
2022/08/26 02:46:20;;;;;;;7.87;5.73;;;;;;;23.16;54.15;97148.97;5060034;28;20290;-70
2022/08/26 02:48:46;;;;;;;7.13;5.70;;;;;;;23.17;54.04;97145.25;5052815;28;20576;-71
2022/08/26 02:51:11;;;;;;;7.90;5.10;;;;;;;23.13;53.78;97150.25;5053880;28;20626;-70
2022/08/26 02:53:37;;;;;;;5.87;4.90;;;;;;;23.02;54.27;97145.72;5053876;28;20228;-71
2022/08/26 02:56:04;;;;;;;6.03;5.53;;;;;;;23.10;54.09;97152.59;5053993;28;20238;-71
2022/08/26 02:58:30;;;;;;;6.23;5.00;;;;;;;23.07;54.32;97140.47;5043647;28;20206;-71
2022/08/26 03:00:55;;;;;;;6.17;5.57;;;;;;;23.02;54.46;97143.06;5053749;28;20467;-71
2022/08/26 03:03:21;;;;;;;7.07;5.40;;;;;;;22.97;54.62;97134.91;5055643;28;20321;-71
2022/08/26 03:05:47;;;;;;;6.10;5.40;;;;;;;22.97;54.51;97134.91;5067775;28;20195;-71
2022/08/26 03:08:12;;;;;;;6.03;5.03;;;;;;;22.98;54.68;97133.88;5052135;28;20175;-71
2022/08/26 03:10:39;;;;;;;6.53;5.10;;;;;;;22.97;54.48;97134.91;5053138;28;20175;-71
2022/08/26 03:13:04;;;;;;;6.10;5.17;;;;;;;22.97;54.56;97134.91;5053468;28;20183;-70
2022/08/26 03:15:31;;;;;;;6.00;5.10;;;;;;;22.94;54.61;97130.88;5053584;28;20850;-72
2022/08/26 03:17:56;;;;;;;5.73;5.30;;;;;;;22.95;54.63;97131.66;5052690;28;20195;-72
2022/08/26 03:20:22;;;;;;;6.00;5.50;;;;;;;22.92;54.68;97132.94;5055652;28;20551;-70
2022/08/26 03:22:50;;;;;;;6.20;5.57;;;;;;;22.85;54.88;97125.06;5067189;28;20229;-71
2022/08/26 03:25:16;;;;;;;6.17;5.67;;;;;;;22.79;54.88;97123.34;5052914;28;20229;-71
2022/08/26 03:27:41;;;;;;;7.00;5.80;;;;;;;22.78;54.83;97120.88;5052737;28;20414;-71
2022/08/26 03:32:51;;;;;;;9.43;5.80;;;;;;;22.70;55.06;97136.22;5053184;28;20180;-71
2022/08/26 03:35:17;;;;;;;7.97;5.27;;;;;;;22.72;54.90;97127.97;5052657;28;20515;-72
2022/08/26 03:37:42;;;;;;;6.03;5.53;;;;;;;22.69;54.93;97128.41;5051779;28;20215;-70
2022/08/26 03:40:10;;;;;;;9.30;5.87;;;;;;;22.66;55.26;97132.38;5052745;28;20186;-70
2022/08/26 03:42:37;;;;;;;7.77;5.80;;;;;;;22.64;54.83;97131.00;5053187;28;20179;-71
2022/08/26 03:45:04;;;;;;;6.40;5.77;;;;;;;22.54;55.50;97135.06;5059189;28;20836;-70
2022/08/26 03:47:30;;;;;;;6.33;5.37;;;;;;;22.52;55.29;97139.81;5044084;28;20497;-72
2022/08/26 03:49:56;;;;;;;6.27;5.53;;;;;;;22.54;55.47;97132.38;5052897;28;20445;-71
2022/08/26 03:52:21;;;;;;;6.57;5.97;;;;;;;22.54;55.46;97134.22;5053300;28;20206;-71
2022/08/26 03:54:47;;;;;;;6.33;5.73;;;;;;;22.55;55.44;97135.84;5052912;28;20179;-71
2022/08/26 03:57:12;;;;;;;6.30;5.47;;;;;;;22.57;55.46;97135.63;5051669;28;20294;-72
2022/08/26 03:59:38;;;;;;;8.10;5.50;;;;;;;22.62;54.88;97138.41;5030163;28;20186;-71
2022/08/26 04:02:04;;;;;;;6.03;5.50;;;;;;;22.63;55.13;97137.38;5057389;28;20309;-70
2022/08/26 04:04:29;;;;;;;6.10;5.50;;;;;;;22.64;54.94;97136.34;5044202;28;20579;-70
2022/08/26 04:06:57;;;;;;;6.20;5.60;;;;;;;22.61;55.08;97136.78;5051628;28;20213;-71
2022/08/26 04:09:23;;;;;;;6.47;5.87;;;;;;;22.61;55.17;97136.78;5046021;28;20553;-73
2022/08/26 04:11:48;;;;;;;6.30;5.53;;;;;;;22.61;55.05;97131.44;5052906;28;20508;-72
2022/08/26 04:14:18;;;;;;;6.50;5.77;;;;;;;22.60;55.07;97125.31;5049344;28;20221;-72
2022/08/26 04:16:44;;;;;;;6.90;6.20;;;;;;;22.49;55.15;97132.25;5037378;28;20548;-72
2022/08/26 04:19:10;;;;;;;6.40;5.80;;;;;;;22.45;55.18;97131.06;5052680;28;20421;-72
2022/08/26 04:21:39;;;;;;;5.77;5.37;;;;;;;22.40;55.69;97130.94;5050427;28;20425;-72
2022/08/26 04:24:05;;;;;;;7.73;6.23;;;;;;;22.44;55.50;97125.97;5052456;28;20916;-71
2022/08/26 04:26:35;;;;;;;7.33;5.87;;;;;;;22.42;55.49;97123.56;5051726;28;20441;-70
2022/08/26 04:29:03;;;;;;;6.30;5.60;;;;;;;22.47;55.42;97121.00;5047960;28;20427;-69
2022/08/26 04:31:28;;;;;;;7.60;6.10;;;;;;;22.41;55.32;97124.59;5043302;28;20514;-71
2022/08/26 04:33:55;;;;;;;6.40;5.80;;;;;;;22.34;55.44;97127.34;5065583;28;20508;-71
2022/08/26 04:36:22;;;;;;;7.33;5.83;;;;;;;22.35;55.55;97125.47;5051097;28;20211;-72
2022/08/26 04:38:49;;;;;;;7.00;5.80;;;;;;;22.33;55.46;97125.72;5052235;28;20425;-71
2022/08/26 04:41:15;;;;;;;8.33;5.60;;;;;;;22.29;55.62;97121.06;5058298;28;20433;-70
2022/08/26 04:43:41;;;;;;;9.33;6.10;;;;;;;22.26;55.76;97122.31;5051578;28;20418;-71
2022/08/26 04:46:08;;;;;;;12.63;6.30;;;;;;;22.25;55.78;97118.84;5057792;28;20448;-70
2022/08/26 04:48:34;;;;;;;11.87;5.43;;;;;;;22.25;55.70;97118.03;5060690;28;20650;-71
2022/08/26 04:51:00;;;;;;;14.23;5.67;;;;;;;22.28;55.89;97119.44;5055469;28;20421;-70
2022/08/26 04:53:26;;;;;;;9.27;6.13;;;;;;;22.23;56.06;97120.94;5051085;28;20799;-69
2022/08/26 04:55:51;;;;;;;6.83;5.70;;;;;;;22.23;55.91;97120.94;5045264;28;20553;-70
2022/08/26 04:58:18;;;;;;;7.90;5.70;;;;;;;22.25;56.08;97121.53;5065530;28;20815;-70
2022/08/26 05:00:44;;;;;;;13.40;5.90;;;;;;;22.29;56.06;97121.88;5046110;28;20320;-70
2022/08/26 05:03:10;;;;;;;8.37;5.57;;;;;;;22.36;55.87;97125.25;5050814;28;20462;-70
2022/08/26 05:05:42;;;;;;;7.40;6.47;;;;;;;22.34;55.87;97131.84;5051084;28;20582;-70
2022/08/26 05:08:09;;;;;;;12.50;6.00;;;;;;;22.37;55.64;97134.88;5061320;28;20206;-71
2022/08/26 05:10:39;;;;;;;6.60;5.80;;;;;;;22.42;55.92;97131.56;5050995;28;20436;-72
2022/08/26 05:13:04;;;;;;;10.90;5.97;;;;;;;22.45;55.53;97133.75;5049464;28;20530;-71
2022/08/26 05:15:29;;;;;;;6.13;5.40;;;;;;;22.51;55.45;97138.19;5067558;28;20995;-71
2022/08/26 05:17:57;;;;;;;9.03;6.10;;;;;;;22.58;55.24;97138.06;5053575;28;20632;-71
2022/08/26 05:20:23;;;;;;;7.80;5.80;;;;;;;22.60;55.21;97138.66;5062367;28;20215;-71
2022/08/26 05:22:49;;;;;;;7.30;6.60;;;;;;;22.67;55.59;97143.88;5056497;28;20491;-70
2022/08/26 05:25:14;;;;;;;17.03;6.50;;;;;;;22.75;55.48;97143.53;5048642;28;20649;-70
2022/08/26 05:27:39;;;;;;;7.47;5.57;;;;;;;22.78;55.17;97142.25;5065336;28;20171;-70
2022/08/26 05:30:06;;;;;;;8.43;5.37;;;;;;;22.82;55.10;97146.88;5045274;28;20183;-70
2022/08/26 05:32:31;;;;;;;8.30;6.50;;;;;;;22.79;54.53;97144.69;5050715;28;20178;-71
2022/08/26 05:34:56;;;;;;;8.30;6.50;;;;;;;22.75;54.80;97148.88;5058709;28;20824;-71
2022/08/26 05:37:22;;;;;;;6.87;6.17;;;;;;;22.73;54.88;97153.63;5049132;28;20210;-71
2022/08/26 05:39:48;;;;;;;9.40;6.33;;;;;;;22.79;54.87;97150.03;5049531;28;20183;-70
2022/08/26 05:42:14;;;;;;;6.33;5.73;;;;;;;22.79;55.17;97146.53;5041895;28;20557;-70
2022/08/26 05:44:39;;;;;;;7.77;6.20;;;;;;;22.88;55.08;97152.34;5053883;28;20174;-70
2022/08/26 05:47:06;;;;;;;8.53;5.90;;;;;;;22.90;54.85;97147.59;5052940;28;20456;-71
2022/08/26 05:49:32;;;;;;;6.27;5.67;;;;;;;22.93;55.12;97157.81;5050924;28;20179;-71
2022/08/26 05:51:57;;;;;;;10.10;6.57;;;;;;;22.97;55.02;97157.13;5065279;28;20432;-71
2022/08/26 05:54:23;;;;;;;11.20;6.80;;;;;;;23.01;54.93;97162.81;5051150;28;20273;-70
2022/08/26 05:56:51;;;;;;;8.60;6.70;;;;;;;22.99;55.14;97159.56;5050074;28;20206;-71
2022/08/26 05:59:17;;;;;;;9.20;6.03;;;;;;;23.01;55.27;97168.16;5043357;28;20233;-70
2022/08/26 06:01:42;;;;;;;7.00;6.00;;;;;;;23.00;54.92;97164.66;5044318;28;20421;-70
2022/08/26 06:04:08;;;;;;;14.37;7.63;;;;;;;22.96;54.40;97170.69;5050274;28;20183;-70
2022/08/26 06:06:35;;;;;;;10.60;6.60;;;;;;;22.88;54.60;97168.38;5050285;28;20205;-71
2022/08/26 06:09:03;;;;;;;8.17;7.00;;;;;;;22.87;54.64;97164.91;5046883;28;20429;-70
2022/08/26 06:11:31;;;;;;;10.00;6.93;;;;;;;22.90;54.38;97171.66;5042817;28;20994;-70
2022/08/26 06:14:01;;;;;;;9.00;7.03;;;;;;;22.90;54.20;97168.97;5050630;28;20475;-70
2022/08/26 06:16:27;;;;;;;9.83;7.20;;;;;;;22.90;54.11;97177.00;5049718;28;20465;-71
2022/08/26 06:18:53;;;;;;;10.03;7.27;;;;;;;22.91;54.12;97178.63;5050585;28;20932;-71
2022/08/26 06:21:24;;;;;;;8.33;7.00;;;;;;;22.92;54.33;97172.22;5054327;28;20421;-71
2022/08/26 06:26:37;;;;;;;7.73;6.33;;;;;;;22.95;54.50;97174.41;5042607;28;20440;-70
2022/08/26 06:29:03;;;;;;;6.63;5.93;;;;;;;23.05;54.59;97180.00;5050524;28;20424;-70
2022/08/26 06:31:30;;;;;;;8.30;6.50;;;;;;;23.12;54.35;97175.34;5050658;28;20832;-71
2022/08/26 06:33:57;;;;;;;11.53;6.57;;;;;;;23.22;54.15;97174.78;5050564;28;20410;-71
2022/08/26 06:36:26;;;;;;;9.10;6.83;;;;;;;23.33;53.77;97170.44;5047530;28;20969;-71
2022/08/26 06:38:53;;;;;;;6.47;5.80;;;;;;;23.46;53.84;97172.88;5049947;28;20422;-70
2022/08/26 06:41:22;;;;;;;8.27;6.13;;;;;;;23.63;53.83;97172.13;5050350;28;20446;-71
2022/08/26 06:43:48;;;;;;;6.57;5.90;;;;;;;23.81;53.80;97176.50;5050389;28;20796;-70
2022/08/26 06:46:16;;;;;;;9.47;6.90;;;;;;;24.03;53.63;97181.19;5060170;28;20448;-70
2022/08/26 06:48:41;;;;;;;7.77;5.70;;;;;;;24.27;53.22;97178.41;5059073;28;20417;-69
2022/08/26 06:51:14;;;;;;;12.43;6.10;;;;;;;24.50;53.04;97167.56;5064638;28;20506;-71
2022/08/26 06:53:41;;;;;;;12.53;6.57;;;;;;;24.73;51.69;97175.69;5068043;28;20434;-71
2022/08/26 06:56:09;;;;;;;8.40;6.20;;;;;;;24.93;51.07;97176.03;5068399;28;20429;-72
2022/08/26 06:58:36;;;;;;;12.00;5.80;;;;;;;25.13;50.41;97172.81;5065212;28;20437;-71
2022/08/26 07:01:03;;;;;;;21.57;6.17;;;;;;;25.30;50.00;97175.47;5063498;28;20798;-71
2022/08/26 07:03:28;;;;;;;6.53;5.60;;;;;;;25.52;49.65;97166.63;5061625;28;20417;-71
2022/08/26 07:06:00;;;;;;;5.73;5.23;;;;;;;25.76;49.56;97166.38;5057113;28;20434;-72
2022/08/26 07:08:26;;;;;;;14.00;5.83;;;;;;;25.99;48.82;97176.00;5053081;28;20190;-70
2022/08/26 07:10:52;;;;;;;8.60;5.20;;;;;;;26.21;48.40;97170.59;5054598;28;21006;-70
2022/08/26 07:13:17;;;;;;;9.37;5.80;;;;;;;26.43;47.98;97174.28;5053902;28;20171;-70
2022/08/26 07:15:43;;;;;;;7.30;5.63;;;;;;;26.64;47.36;97177.94;5053393;28;20573;-72
2022/08/26 07:18:08;;;;;;;13.20;5.97;;;;;;;26.83;47.37;97173.84;5052347;28;20195;-71
2022/08/26 07:20:40;;;;;;;10.83;5.73;;;;;;;26.97;46.66;97170.66;5065799;28;20261;-72
2022/08/26 07:23:06;;;;;;;8.00;5.10;;;;;;;27.08;46.62;97177.75;5056426;28;20175;-71
2022/08/26 07:25:32;;;;;;;8.70;5.90;;;;;;;27.17;46.66;97177.25;5053617;28;20501;-72
2022/08/26 07:27:57;;;;;;;11.03;6.00;;;;;;;27.22;46.23;97171.91;5052792;28;20425;-72
2022/08/26 07:30:24;;;;;;;7.77;5.20;;;;;;;27.36;46.33;97181.09;5053367;28;20650;-69
2022/08/26 07:32:49;;;;;;;6.80;4.63;;;;;;;27.47;46.29;97181.19;5053143;28;20205;-69
2022/08/26 07:35:15;;;;;;;12.33;5.47;;;;;;;27.51;45.55;97171.50;5052802;28;20513;-69
2022/08/26 07:37:41;;;;;;;8.13;5.00;;;;;;;27.56;45.77;97176.94;5051828;28;20199;-70
2022/08/26 07:40:08;;;;;;;10.27;5.30;;;;;;;27.61;45.60;97182.31;5051607;28;20187;-71
2022/08/26 07:42:33;;;;;;;8.60;4.60;;;;;;;27.61;45.24;97185.00;5052900;28;20595;-71
2022/08/26 07:44:59;;;;;;;7.53;4.97;;;;;;;27.57;45.17;97181.25;5058386;28;20444;-70
2022/08/26 07:47:24;;;;;;;7.83;5.07;;;;;;;27.59;45.30;97184.47;5052452;28;20179;-71
2022/08/26 07:49:50;;;;;;;6.27;4.73;;;;;;;27.66;45.07;97185.03;5052826;28;20183;-70
2022/08/26 07:52:18;;;;;;;6.50;4.90;;;;;;;27.70;45.42;97182.63;5052546;28;20175;-71
2022/08/26 07:54:44;;;;;;;6.10;4.73;;;;;;;27.78;45.24;97184.00;5052530;28;20179;-71
2022/08/26 07:57:09;;;;;;;10.97;5.20;;;;;;;27.83;44.69;97184.03;5051235;28;20449;-71
2022/08/26 07:59:35;;;;;;;11.60;4.90;;;;;;;27.90;44.57;97184.56;5052964;28;20626;-70
2022/08/26 08:02:00;;;;;;;7.77;4.87;;;;;;;27.97;44.41;97190.53;5052687;28;20175;-70
2022/08/26 08:04:26;;;;;;;7.87;4.47;;;;;;;28.03;44.09;97188.66;5052324;28;20186;-71
2022/08/26 08:06:51;;;;;;;8.10;4.70;;;;;;;28.07;44.19;97184.34;5051711;28;20202;-69
2022/08/26 08:09:17;;;;;;;8.50;4.50;;;;;;;28.09;43.88;97187.59;5051566;28;20187;-70
2022/08/26 08:11:43;;;;;;;5.40;3.90;;;;;;;28.15;43.67;97196.50;5052328;28;20179;-71
2022/08/26 08:14:09;;;;;;;8.53;4.67;;;;;;;28.09;43.35;97193.00;5052325;28;20328;-70
2022/08/26 08:16:35;;;;;;;7.90;4.83;;;;;;;28.12;43.24;97186.25;5051466;28;20477;-70
2022/08/26 08:19:00;;;;;;;9.40;4.70;;;;;;;28.13;43.02;97187.88;5052266;28;20289;-71
2022/08/26 08:21:26;;;;;;;9.13;4.27;;;;;;;28.13;43.65;97190.56;5060239;28;20179;-70
2022/08/26 08:23:54;;;;;;;7.33;5.00;;;;;;;28.12;43.96;97187.06;5052246;28;20178;-71
2022/08/26 08:26:20;;;;;;;11.30;5.17;;;;;;;28.17;43.97;97189.75;5051205;28;20449;-72
2022/08/26 08:28:46;;;;;;;4.80;4.30;;;;;;;28.25;44.18;97184.94;5050492;28;20430;-70
2022/08/26 08:31:23;;;;;;;5.27;4.73;;;;;;;28.28;43.58;97189.81;5044502;28;20269;-71
2022/08/26 08:33:49;;;;;;;6.17;4.03;;;;;;;28.33;43.44;97192.47;5051958;28;20179;-70
2022/08/26 08:36:15;;;;;;;5.43;4.67;;;;;;;28.40;42.90;97192.22;5051464;28;20603;-71
2022/08/26 08:38:42;;;;;;;8.30;5.30;;;;;;;28.52;42.80;97192.75;5048929;28;20544;-71
2022/08/26 08:41:52;;;;;;;12.80;5.00;;;;;;;28.64;42.76;97177.13;5051623;28;20417;-71
2022/08/26 08:44:20;;;;;;;10.10;4.90;;;;;;;28.76;42.25;97184.97;5048962;28;20512;-70
2022/08/26 08:46:51;;;;;;;5.03;4.53;;;;;;;28.85;42.26;97177.16;5056611;28;20433;-70
2022/08/26 08:49:16;;;;;;;9.13;4.43;;;;;;;29.01;41.94;97183.34;5050167;28;20429;-72
2022/08/26 08:51:49;;;;;;;9.10;5.17;;;;;;;29.14;41.81;97181.16;5050552;28;20425;-70
2022/08/26 08:54:14;;;;;;;12.27;4.53;;;;;;;29.25;41.74;97180.03;5050911;28;20186;-72
2022/08/26 08:57:03;;;;;;;9.47;5.50;;;;;;;29.34;41.73;97174.91;5051394;28;20925;-70
2022/08/26 08:59:35;;;;;;;6.83;4.87;;;;;;;29.40;40.73;97173.78;5051510;28;20558;-70
2022/08/26 09:02:04;;;;;;;10.50;4.70;;;;;;;29.42;40.62;97179.72;5049673;28;20995;-70
2022/08/26 09:04:38;;;;;;;10.93;5.10;;;;;;;29.38;40.35;97175.97;5043477;28;20410;-71
2022/08/26 09:07:09;;;;;;;5.70;4.87;;;;;;;29.40;40.48;97181.88;5050015;28;20445;-71
2022/08/26 09:09:45;;;;;;;7.77;4.83;;;;;;;29.45;40.98;97172.97;5049762;28;20490;-72
2022/08/26 09:12:24;;;;;;;8.57;4.53;;;;;;;29.52;40.42;97174.28;5049798;28;20417;-70
2022/08/26 09:14:53;;;;;;;13.30;5.30;;;;;;;29.56;39.83;97175.34;5051539;28;20456;-70
2022/08/26 09:17:32;;;;;;;6.27;4.77;;;;;;;29.69;40.38;97178.53;5050102;28;20453;-70
2022/08/26 09:20:32;;;;;;;6.10;4.40;;;;;;;29.88;40.48;97170.63;5051465;28;20422;-71
2022/08/26 09:22:57;;;;;;;11.00;5.90;;;;;;;30.05;39.65;97164.88;5044249;28;20451;-71
2022/08/26 09:25:23;;;;;;;9.13;6.37;;;;;;;30.18;39.57;97171.56;5051164;28;20722;-71
2022/08/26 09:27:50;;;;;;;8.47;5.33;;;;;;;30.37;39.05;97170.84;5050236;28;20179;-71
2022/08/26 09:30:26;;;;;;;14.73;4.77;;;;;;;30.47;39.14;97168.91;5051043;28;20608;-70
2022/08/26 09:33:02;;;;;;;11.50;4.90;;;;;;;30.58;38.84;97163.44;5059115;28;20789;-70
2022/08/26 09:35:31;;;;;;;10.10;4.90;;;;;;;30.73;38.52;97162.47;5050910;28;20465;-70
2022/08/26 09:37:57;;;;;;;20.87;5.17;;;;;;;30.84;38.76;97158.56;5049501;28;21006;-70
2022/08/26 09:40:31;;;;;;;14.47;5.27;;;;;;;30.98;38.15;97157.91;5058465;28;20457;-71
2022/08/26 09:43:21;;;;;;;12.93;5.40;;;;;;;31.10;38.18;97151.03;5050932;28;20421;-70
2022/08/26 09:45:53;;;;;;;7.33;4.80;;;;;;;31.31;37.85;97156.22;5051619;28;20437;-71
2022/08/26 09:48:33;;;;;;;7.23;4.60;;;;;;;31.50;37.51;97152.75;5048354;28;20893;-71
2022/08/26 09:51:02;;;;;;;13.93;4.60;;;;;;;31.66;37.37;97156.84;5049837;28;20409;-71
2022/08/26 09:53:30;;;;;;;11.43;5.10;;;;;;;31.93;37.30;97150.03;5050724;28;20446;-71
2022/08/26 09:56:13;;;;;;;12.87;5.37;;;;;;;32.13;36.84;97134.59;5050669;28;20811;-71
2022/08/26 09:58:42;;;;;;;11.10;4.60;;;;;;;32.35;36.29;97122.34;5043233;28;20460;-71
2022/08/26 10:01:21;;;;;;;20.70;5.50;;;;;;;32.54;35.65;97120.38;5050794;28;20516;-71
2022/08/26 10:03:47;;;;;;;14.60;5.40;;;;;;;32.72;35.01;97115.19;5050608;28;20904;-72
2022/08/26 10:06:15;;;;;;;11.17;5.07;;;;;;;32.88;34.57;97108.41;5049159;28;20475;-71
2022/08/26 10:09:00;;;;;;;5.80;4.93;;;;;;;33.15;33.99;97095.91;5049538;28;20205;-71
2022/08/26 10:11:47;;;;;;;10.83;4.57;;;;;;;33.40;34.27;97099.22;5049513;28;20409;-71
2022/08/26 10:14:34;;;;;;;13.23;5.83;;;;;;;33.63;33.86;97102.03;5049234;28;20417;-71
2022/08/26 10:17:37;;;;;;;9.50;5.13;;;;;;;33.76;33.38;97094.94;5048545;28;20532;-71
2022/08/26 10:20:19;;;;;;;9.67;5.07;;;;;;;33.99;33.26;97090.38;5047856;28;20456;-71
2022/08/26 10:22:54;;;;;;;10.67;5.23;;;;;;;34.21;32.24;97089.56;5061796;28;20460;-71
2022/08/26 10:25:23;;;;;;;11.80;5.53;;;;;;;34.37;32.28;97081.00;5054073;28;20445;-70
2022/08/26 10:28:06;;;;;;;14.43;4.97;;;;;;;34.50;31.34;97082.88;5053861;28;20421;-72
2022/08/26 10:30:37;;;;;;;12.27;5.67;;;;;;;33.83;31.89;97085.25;5048861;28;20410;-71
2022/08/26 10:33:09;;;;;;;12.50;5.63;;;;;;;34.22;31.66;97091.16;5061495;28;20445;-72
2022/08/26 10:35:36;;;;;;;7.70;5.23;;;;;;;34.58;31.65;97075.88;5042649;28;20843;-72
2022/08/26 10:38:08;;;;;;;12.30;5.47;;;;;;;34.86;30.69;97084.63;5055638;28;20904;-72
2022/08/26 10:40:46;;;;;;;12.10;5.40;;;;;;;35.20;30.92;97075.00;5046882;28;20512;-72
2022/08/26 10:43:19;;;;;;;14.90;4.93;;;;;;;35.55;29.88;97085.16;5036595;28;20525;-72
2022/08/26 10:45:54;;;;;;;8.60;4.03;;;;;;;35.85;28.96;97090.78;5059385;28;20432;-72
2022/08/26 10:48:40;;;;;;;6.77;4.87;;;;;;;36.04;28.51;97081.53;5069396;28;21014;-71
2022/08/26 10:51:05;;;;;;;18.03;5.40;;;;;;;36.16;27.97;97083.56;5052687;28;20436;-72
2022/08/26 10:53:37;;;;;;;10.43;4.90;;;;;;;36.16;27.65;97078.94;5052675;28;20443;-71
2022/08/26 10:56:25;;;;;;;12.97;5.50;;;;;;;36.35;27.74;97064.13;5053970;28;20216;-71
2022/08/26 10:59:09;;;;;;;10.57;4.77;;;;;;;36.53;27.70;97073.09;5048700;28;20599;-72
2022/08/26 11:01:44;;;;;;;13.40;5.10;;;;;;;36.60;27.22;97062.47;5050478;28;20417;-72
2022/08/26 11:04:24;;;;;;;14.47;4.60;;;;;;;36.46;26.53;97065.41;5053433;28;20438;-72
2022/08/26 11:07:31;;;;;;;6.80;4.50;;;;;;;36.22;26.49;97061.25;5051657;28;20428;-71
2022/08/26 11:10:08;;;;;;;10.03;5.20;;;;;;;36.02;27.03;97051.06;5049913;28;20795;-70
2022/08/26 11:12:33;;;;;;;9.63;4.70;;;;;;;36.00;27.20;97047.84;5054061;28;20928;-71
2022/08/26 11:14:59;;;;;;;8.47;5.13;;;;;;;35.70;27.57;97055.84;5053407;28;20421;-70
2022/08/26 11:18:04;;;;;;;7.93;4.83;;;;;;;35.95;28.05;97046.88;5060462;28;20217;-70
2022/08/26 11:20:37;;;;;;;8.63;4.73;;;;;;;36.28;26.65;97040.88;5034164;28;20436;-70
2022/08/26 11:23:11;;;;;;;9.63;4.80;;;;;;;36.51;26.81;97045.31;5053882;28;20551;-70
2022/08/26 11:25:56;;;;;;;9.87;4.83;;;;;;;36.83;26.13;97035.72;5045674;28;20785;-70
2022/08/26 11:28:38;;;;;;;11.90;4.67;;;;;;;36.93;25.06;97036.50;5052178;28;20826;-70
2022/08/26 11:31:07;;;;;;;8.33;5.00;;;;;;;37.20;25.09;97029.75;5052673;28;20420;-71
2022/08/26 11:33:52;;;;;;;12.57;4.10;;;;;;;37.49;24.69;97031.66;5051882;28;20413;-70
2022/08/26 11:36:36;;;;;;;9.60;4.73;;;;;;;37.82;24.29;97024.63;5052401;28;20939;-70
2022/08/26 11:39:34;;;;;;;9.03;4.30;;;;;;;38.09;24.42;97028.72;5051578;28;20428;-70
2022/08/26 11:42:19;;;;;;;8.90;4.50;;;;;;;37.84;24.71;97029.75;5049106;28;20452;-70
2022/08/26 11:44:44;;;;;;;13.20;4.87;;;;;;;37.43;24.75;97032.19;5049637;28;20423;-70
2022/08/26 11:47:13;;;;;;;8.43;4.80;;;;;;;36.86;25.63;97023.34;5054519;28;20465;-70